Time;durP1;ratioP1;P1;durP2;ratioP2;P2;SDS_P1;SDS_P2;PMS_P1;PMS_P2;Temp;Humidity;BMP_temperature;BMP_pressure;BME280_temperature;BME280_humidity;BME280_pressure;Samples;Min_cycle;Max_cycle;Signal;HPM_P1;HPM_P2
2022/12/18 00:00:52;;;;;;;33.30;11.63;;;;;;;-6.93;100.00;99800.03;2620208;28;20049;-84
2022/12/18 00:02:28;;;;;;;35.05;11.02;;;;;;;-6.78;100.00;99801.81;2620439;28;20040;-81
2022/12/18 00:03:44;;;;;;;33.13;11.50;;;;;;;-6.80;100.00;99801.72;2621617;28;20676;-85
2022/12/18 00:05:02;;;;;;;37.92;12.35;;;;;;;-7.02;100.00;99802.88;2620481;28;20502;-82
2022/12/18 00:06:20;;;;;;;41.47;13.82;;;;;;;-6.91;100.00;99805.25;2622417;28;20094;-83
2022/12/18 00:07:36;;;;;;;36.22;12.20;;;;;;;-6.85;100.00;99810.72;2622148;28;20606;-82
2022/12/18 00:08:52;;;;;;;34.58;11.63;;;;;;;-6.91;100.00;99810.34;2623262;28;20087;-86
2022/12/18 00:10:08;;;;;;;39.42;11.82;;;;;;;-6.84;100.00;99809.97;2619482;28;20696;-83
2022/12/18 00:11:26;;;;;;;35.90;12.07;;;;;;;-6.88;100.00;99818.16;2621317;28;20048;-83
2022/12/18 00:12:41;;;;;;;37.38;11.88;;;;;;;-7.16;100.00;99818.94;2619700;28;20455;-83
2022/12/18 00:13:58;;;;;;;37.45;11.23;;;;;;;-7.04;100.00;99822.28;2621520;28;20082;-89
2022/12/18 00:15:14;;;;;;;39.53;11.52;;;;;;;-6.94;100.00;99828.84;2621061;28;20045;-82
2022/12/18 00:16:32;;;;;;;42.53;13.18;;;;;;;-7.13;100.00;99827.66;2623270;28;20048;-85
2022/12/18 00:17:48;;;;;;;39.00;11.98;;;;;;;-6.93;100.00;99833.13;2621893;28;20052;-82
2022/12/18 00:19:05;;;;;;;44.75;12.55;;;;;;;-6.81;100.00;99831.38;2623625;28;20049;-83
2022/12/18 00:20:25;;;;;;;44.97;13.45;;;;;;;-7.08;100.00;99835.59;2620825;28;20048;-83
2022/12/18 00:21:42;;;;;;;35.00;11.98;;;;;;;-7.18;100.00;99840.88;2619837;28;20489;-83
2022/12/18 00:22:58;;;;;;;36.83;12.85;;;;;;;-7.34;100.00;99832.22;2619299;28;20052;-81
2022/12/18 00:24:13;;;;;;;45.80;13.90;;;;;;;-7.15;100.00;99834.31;2620003;28;20056;-82
2022/12/18 00:25:29;;;;;;;50.50;14.43;;;;;;;-7.07;100.00;99831.38;2620249;28;20052;-82
2022/12/18 00:26:44;;;;;;;44.40;13.90;;;;;;;-7.01;100.00;99837.75;2620619;28;20130;-82
2022/12/18 00:28:00;;;;;;;45.08;12.88;;;;;;;-7.04;100.00;99841.78;2622748;28;20053;-82
2022/12/18 00:29:16;;;;;;;40.30;13.50;;;;;;;-7.12;100.00;99838.72;2620328;28;20047;-82
2022/12/18 00:30:33;;;;;;;44.15;13.82;;;;;;;-7.29;100.00;99841.03;2621516;28;20688;-82
2022/12/18 00:31:48;;;;;;;45.00;14.93;;;;;;;-7.24;100.00;99844.78;2621817;28;20075;-83
2022/12/18 00:33:04;;;;;;;47.67;14.60;;;;;;;-7.24;100.00;99849.88;2620896;28;20052;-83
2022/12/18 00:34:20;;;;;;;48.08;14.63;;;;;;;-7.17;100.00;99840.97;2622265;28;20525;-83
2022/12/18 00:35:35;;;;;;;41.25;13.85;;;;;;;-7.42;100.00;99841.91;2620240;28;20105;-84
2022/12/18 00:36:51;;;;;;;29.83;11.52;;;;;;;-7.53;100.00;99843.72;2624016;28;20602;-83
2022/12/18 00:38:06;;;;;;;45.63;12.25;;;;;;;-7.25;100.00;99842.13;2624297;28;20514;-83
2022/12/18 00:39:22;;;;;;;45.17;14.50;;;;;;;-7.08;100.00;99840.69;2622326;28;20053;-83
2022/12/18 00:40:37;;;;;;;42.92;13.27;;;;;;;-7.04;100.00;99836.69;2620847;28;20056;-82
2022/12/18 00:43:27;;;;;;;35.47;11.13;;;;;;;-6.84;100.00;99848.16;2623482;28;20428;-83
2022/12/18 00:44:43;;;;;;;36.20;11.57;;;;;;;-6.89;100.00;99852.06;2621653;28;20448;-84
2022/12/18 00:45:58;;;;;;;41.53;12.90;;;;;;;-6.81;100.00;99846.66;2622096;28;20044;-85
2022/12/18 00:47:14;;;;;;;39.50;12.65;;;;;;;-6.95;100.00;99853.44;2624232;28;20388;-84
2022/12/18 00:48:30;;;;;;;41.38;13.18;;;;;;;-6.91;100.00;99853.63;2623090;28;20164;-82
2022/12/18 00:49:45;;;;;;;39.97;12.60;;;;;;;-7.01;100.00;99853.00;2624423;28;20101;-82
2022/12/18 00:51:01;;;;;;;37.22;13.05;;;;;;;-6.91;100.00;99853.63;2624003;28;20059;-82
2022/12/18 00:52:16;;;;;;;42.80;11.77;;;;;;;-7.01;100.00;99858.09;2622411;28;20466;-84
2022/12/18 00:53:32;;;;;;;36.17;13.10;;;;;;;-6.81;100.00;99861.09;2624584;28;20104;-82
2022/12/18 00:54:47;;;;;;;44.70;14.05;;;;;;;-6.63;100.00;99863.94;2622517;28;20469;-82
2022/12/18 00:56:03;;;;;;;47.47;16.20;;;;;;;-6.44;100.00;99865.09;2623726;28;20075;-82
2022/12/18 00:57:19;;;;;;;50.75;15.15;;;;;;;-6.41;100.00;99863.63;2621665;28;20052;-82
2022/12/18 00:58:34;;;;;;;39.53;13.57;;;;;;;-6.28;100.00;99862.72;2622791;28;20052;-85
2022/12/18 00:59:50;;;;;;;39.03;13.35;;;;;;;-6.44;100.00;99855.75;2625161;28;20418;-84
2022/12/18 01:01:06;;;;;;;50.08;14.30;;;;;;;-6.50;100.00;99862.13;2625247;28;20044;-84
2022/12/18 01:02:21;;;;;;;48.85;16.90;;;;;;;-6.57;100.00;99871.06;2622649;28;20906;-82
2022/12/18 01:03:37;;;;;;;48.45;16.13;;;;;;;-6.56;100.00;99872.84;2624165;28;20048;-84
2022/12/18 01:04:53;;;;;;;51.15;17.38;;;;;;;-6.39;100.00;99863.69;2624484;28;20056;-85
2022/12/18 01:06:11;;;;;;;50.00;16.27;;;;;;;-6.14;100.00;99868.69;2623178;28;20406;-85
2022/12/18 01:07:27;;;;;;;44.72;15.10;;;;;;;-6.15;100.00;99861.78;2621353;28;20423;-85
2022/12/18 01:08:43;;;;;;;47.55;15.23;;;;;;;-6.37;100.00;99859.56;2624434;28;20048;-84
2022/12/18 01:09:59;;;;;;;42.58;14.45;;;;;;;-6.31;100.00;99865.06;2623716;28;20901;-83
2022/12/18 01:11:18;;;;;;;50.95;16.40;;;;;;;-6.20;100.00;99868.28;2623971;28;20049;-82
2022/12/18 01:12:33;;;;;;;46.58;15.82;;;;;;;-6.10;100.00;99867.19;2624069;28;20411;-82
2022/12/18 01:13:49;;;;;;;42.13;14.85;;;;;;;-6.12;100.00;99867.09;2622357;28;20052;-82
2022/12/18 01:15:13;;;;;;;53.45;16.13;;;;;;;-6.03;100.00;99861.69;2623615;28;20462;-84
2022/12/18 01:16:29;;;;;;;45.08;14.98;;;;;;;-6.27;100.00;99866.16;2623340;28;20131;-82
2022/12/18 01:17:44;;;;;;;41.65;14.50;;;;;;;-6.38;100.00;99868.91;2622251;28;20079;-83
2022/12/18 01:19:00;;;;;;;42.58;13.88;;;;;;;-6.22;100.00;99869.84;2624137;28;20399;-83
2022/12/18 01:20:16;;;;;;;41.22;12.63;;;;;;;-6.10;100.00;99874.81;2622835;28;20471;-82
2022/12/18 01:21:31;;;;;;;41.28;13.05;;;;;;;-5.98;100.00;99874.69;2623859;28;20048;-84
2022/12/18 01:22:47;;;;;;;40.80;14.30;;;;;;;-6.06;100.00;99879.34;2624773;28;20400;-83
2022/12/18 01:24:02;;;;;;;37.80;12.85;;;;;;;-6.01;100.00;99877.91;2622480;28;20117;-83
2022/12/18 01:25:18;;;;;;;36.67;12.52;;;;;;;-6.18;100.00;99876.03;2621248;28;20410;-85
2022/12/18 01:26:34;;;;;;;35.70;11.85;;;;;;;-6.37;100.00;99879.97;2620971;28;20059;-85
2022/12/18 01:27:49;;;;;;;40.00;13.30;;;;;;;-6.38;100.00;99879.09;2622974;28;20257;-83
2022/12/18 01:29:05;;;;;;;38.72;12.05;;;;;;;-6.36;100.00;99876.63;2624931;28;20514;-83
2022/12/18 01:30:20;;;;;;;39.08;13.95;;;;;;;-6.26;100.00;99871.31;2624610;28;20047;-82
2022/12/18 01:31:36;;;;;;;38.75;12.75;;;;;;;-6.15;100.00;99874.53;2623260;28;20055;-82
2022/12/18 01:32:51;;;;;;;38.38;11.80;;;;;;;-6.20;100.00;99875.94;2623481;28;20051;-85
2022/12/18 01:34:08;;;;;;;35.58;12.48;;;;;;;-6.10;100.00;99880.81;2622752;28;20053;-84
2022/12/18 01:35:24;;;;;;;37.22;12.95;;;;;;;-6.20;100.00;99878.47;2620749;28;20893;-85
2022/12/18 01:36:40;;;;;;;38.50;13.63;;;;;;;-6.06;100.00;99876.81;2622567;28;20056;-82
2022/12/18 01:37:56;;;;;;;35.95;12.80;;;;;;;-5.93;100.00;99880.06;2621712;28;20135;-82
2022/12/18 01:39:13;;;;;;;37.13;13.27;;;;;;;-5.67;100.00;99881.66;2623380;28;20052;-82
2022/12/18 01:40:29;;;;;;;39.47;13.93;;;;;;;-5.68;100.00;99883.31;2623183;28;20567;-82
2022/12/18 01:42:03;;;;;;;42.47;13.38;;;;;;;-5.61;100.00;99884.56;2623742;28;20044;-82
2022/12/18 01:43:18;;;;;;;37.95;12.60;;;;;;;-5.51;100.00;99886.00;2624122;28;20600;-83
2022/12/18 01:44:54;;;;;;;33.10;11.57;;;;;;;-5.93;100.00;99885.19;2622629;28;20056;-83
2022/12/18 01:46:10;;;;;;;37.22;12.90;;;;;;;-6.08;100.00;99877.47;2621545;28;20132;-84
2022/12/18 01:47:45;;;;;;;42.80;13.30;;;;;;;-6.02;100.00;99872.75;2621822;28;20461;-82
2022/12/18 01:49:01;;;;;;;38.50;12.20;;;;;;;-6.11;100.00;99885.81;2623204;28;20063;-82
2022/12/18 01:50:21;;;;;;;40.95;14.07;;;;;;;-6.15;100.00;99881.31;2620788;28;20052;-82
2022/12/18 01:51:36;;;;;;;42.42;15.68;;;;;;;-6.22;100.00;99887.69;2621335;28;20113;-83
2022/12/18 01:53:02;;;;;;;41.78;17.23;;;;;;;-6.26;100.00;99891.72;2620726;28;20052;-84
2022/12/18 01:54:18;;;;;;;48.47;17.85;;;;;;;-6.07;100.00;99889.44;2622522;28;20059;-82
2022/12/18 01:55:47;;;;;;;48.50;19.08;;;;;;;-6.16;100.00;99889.75;2624042;28;20406;-83
2022/12/18 01:57:02;;;;;;;55.83;17.42;;;;;;;-6.21;100.00;99894.56;2622593;28;20044;-90
2022/12/18 01:58:23;;;;;;;51.10;16.67;;;;;;;-6.08;100.00;99892.78;2621736;28;20512;-82
2022/12/18 01:59:41;;;;;;;45.08;14.27;;;;;;;-6.04;100.00;99887.06;2621844;28;20079;-82
2022/12/18 02:00:57;;;;;;;37.28;13.77;;;;;;;-5.99;100.00;99899.28;2623129;28;20863;-82
2022/12/18 02:02:14;;;;;;;48.10;15.65;;;;;;;-6.05;100.00;99895.50;2623908;28;20177;-82
2022/12/18 02:03:30;;;;;;;43.10;13.98;;;;;;;-6.12;100.00;99896.81;2622925;28;20048;-81
2022/12/18 02:04:45;;;;;;;42.00;14.07;;;;;;;-6.20;100.00;99903.97;2623791;28;20052;-82
2022/12/18 02:06:03;;;;;;;41.95;14.38;;;;;;;-6.21;100.00;99898.78;2620989;28;20049;-82
2022/12/18 02:07:43;;;;;;;34.35;11.40;;;;;;;-6.41;100.00;99896.75;2623272;28;20483;-83
2022/12/18 02:09:09;;;;;;;42.85;13.55;;;;;;;-6.25;100.00;99888.38;2623206;28;20479;-82
2022/12/18 02:10:25;;;;;;;42.85;12.45;;;;;;;-6.18;100.00;99891.34;2620712;28;20054;-82
2022/12/18 02:11:51;;;;;;;40.45;13.30;;;;;;;-6.08;100.00;99898.75;2621960;28;20057;-81
2022/12/18 02:13:25;;;;;;;33.58;10.63;;;;;;;-5.91;100.00;99901.44;2620789;28;20457;-82
2022/12/18 02:14:54;;;;;;;37.25;11.90;;;;;;;-5.98;100.00;99906.16;2622615;28;20067;-85
2022/12/18 02:16:24;;;;;;;41.97;14.40;;;;;;;-6.01;100.00;99907.66;2620849;28;20615;-82
2022/12/18 02:18:02;;;;;;;40.58;13.07;;;;;;;-6.00;100.00;99899.22;2622873;28;20097;-86
2022/12/18 02:19:32;;;;;;;38.88;12.95;;;;;;;-5.97;100.00;99902.81;2623473;28;20495;-82
2022/12/18 02:21:12;;;;;;;36.05;13.27;;;;;;;-5.91;100.00;99907.41;2621856;28;20151;-83
2022/12/18 02:23:01;;;;;;;40.15;11.77;;;;;;;-5.77;100.00;99912.47;2622197;28;20051;-82
2022/12/18 02:24:27;;;;;;;37.95;12.38;;;;;;;-5.67;100.00;99908.03;2622397;28;20613;-82
2022/12/18 02:26:14;;;;;;;39.65;12.80;;;;;;;-5.55;100.00;99902.81;2622039;28;20535;-83
2022/12/18 02:27:32;;;;;;;31.10;10.30;;;;;;;-5.57;100.00;99899.28;2620218;28;20051;-83
2022/12/18 02:28:54;;;;;;;30.35;10.93;;;;;;;-5.91;100.00;99899.75;2621327;28;20040;-86
2022/12/18 02:30:10;;;;;;;49.50;13.73;;;;;;;-5.77;100.00;99899.72;2621849;28;20075;-84
2022/12/18 02:31:30;;;;;;;41.83;14.20;;;;;;;-5.83;100.00;99897.69;2621107;28;20048;-83
2022/12/18 02:32:52;;;;;;;36.28;12.73;;;;;;;-5.99;100.00;99895.88;2621664;28;20049;-84
2022/12/18 02:34:09;;;;;;;29.60;11.02;;;;;;;-5.92;100.00;99909.88;2621689;28;20048;-84
2022/12/18 02:35:27;;;;;;;44.83;13.65;;;;;;;-6.02;100.00;99909.34;2623251;28;20135;-87
2022/12/18 02:36:46;;;;;;;44.53;14.02;;;;;;;-5.76;100.00;99915.13;2623525;28;20150;-86
2022/12/18 02:38:03;;;;;;;40.60;13.48;;;;;;;-5.81;100.00;99919.06;2622335;28;20135;-82
2022/12/18 02:39:21;;;;;;;36.70;14.60;;;;;;;-5.84;100.00;99911.22;2622886;28;20055;-82
2022/12/18 02:40:38;;;;;;;48.00;14.63;;;;;;;-5.90;100.00;99913.41;2622632;28;20049;-82
2022/12/18 02:41:55;;;;;;;35.67;12.75;;;;;;;-5.76;100.00;99920.25;2622349;28;20406;-83
2022/12/18 02:43:13;;;;;;;41.40;14.18;;;;;;;-6.28;100.00;99923.88;2623230;28;20059;-83
2022/12/18 02:44:29;;;;;;;43.17;14.13;;;;;;;-5.86;100.00;99921.34;2621854;28;20044;-82
2022/12/18 02:45:52;;;;;;;51.38;15.80;;;;;;;-6.01;100.00;99930.59;2622631;28;20047;-83
2022/12/18 02:47:11;;;;;;;49.53;15.65;;;;;;;-5.84;100.00;99924.88;2621095;28;20667;-83
2022/12/18 02:48:34;;;;;;;45.70;15.68;;;;;;;-5.81;100.00;99927.59;2621738;28;20060;-82
2022/12/18 02:49:57;;;;;;;48.72;15.18;;;;;;;-5.54;100.00;99929.19;2621204;28;20318;-84
2022/12/18 02:51:28;;;;;;;45.10;13.18;;;;;;;-5.67;100.00;99925.88;2622580;28;20060;-85
2022/12/18 02:53:13;;;;;;;56.60;15.45;;;;;;;-5.50;100.00;99920.06;2620699;28;21033;-88
2022/12/18 02:54:41;;;;;;;42.88;16.23;;;;;;;-5.68;100.00;99915.59;2623592;28;20407;-82
2022/12/18 02:56:11;;;;;;;44.60;14.93;;;;;;;-5.54;100.00;99917.31;2621272;28;20060;-82
2022/12/18 02:57:40;;;;;;;48.28;14.70;;;;;;;-5.45;100.00;99913.53;2621053;28;20178;-83
2022/12/18 02:59:00;;;;;;;55.47;17.95;;;;;;;-5.40;100.00;99919.81;2621621;28;20414;-82
2022/12/18 03:00:21;;;;;;;56.65;17.38;;;;;;;-5.21;100.00;99920.91;2622366;28;20054;-83
2022/12/18 03:01:45;;;;;;;53.00;18.17;;;;;;;-5.32;100.00;99913.47;2620990;28;20890;-82
2022/12/18 03:03:13;;;;;;;48.67;15.43;;;;;;;-5.26;100.00;99915.53;2621727;28;20149;-83
2022/12/18 03:04:34;;;;;;;55.42;16.83;;;;;;;-5.32;100.00;99918.59;2621838;28;20098;-83
2022/12/18 03:05:58;;;;;;;49.38;15.38;;;;;;;-5.17;100.00;99921.19;2622341;28;20070;-83
2022/12/18 03:07:23;;;;;;;54.60;16.17;;;;;;;-5.14;100.00;99913.69;2621495;28;20051;-83
2022/12/18 03:08:43;;;;;;;53.58;17.52;;;;;;;-5.12;100.00;99918.91;2623603;28;20086;-83
2022/12/18 03:10:00;;;;;;;56.65;17.77;;;;;;;-5.26;100.00;99924.06;2621523;28;20128;-87
2022/12/18 03:12:22;;;;;;;52.67;17.35;;;;;;;-5.20;100.00;99923.56;2621331;28;20135;-82
2022/12/18 03:12:58;;;;;;;50.10;16.25;;;;;;;-5.20;100.00;99927.78;2622421;28;20040;-82
2022/12/18 03:14:16;;;;;;;49.03;15.40;;;;;;;-5.10;100.00;99932.63;2621050;28;20060;-87
2022/12/18 03:15:37;;;;;;;47.63;15.57;;;;;;;-5.06;100.00;99924.34;2620336;28;20055;-82
2022/12/18 03:16:57;;;;;;;61.83;17.52;;;;;;;-5.29;100.00;99933.22;2622375;28;20107;-85
2022/12/18 03:18:19;;;;;;;57.40;17.02;;;;;;;-5.44;100.00;99928.97;2623399;28;20044;-85
2022/12/18 03:19:37;;;;;;;53.85;17.17;;;;;;;-5.32;100.00;99928.81;2621627;28;20143;-82
2022/12/18 03:20:56;;;;;;;52.22;17.10;;;;;;;-5.44;100.00;99930.66;2620325;28;20121;-83
2022/12/18 03:22:13;;;;;;;58.33;18.80;;;;;;;-5.26;100.00;99926.63;2622494;28;20139;-87
2022/12/18 03:23:35;;;;;;;62.80;19.10;;;;;;;-5.54;100.00;99927.53;2619927;28;20094;-86
2022/12/18 03:24:50;;;;;;;;;;;;;;;-5.34;100.00;99922.72;2625240;28;20056;-82
2022/12/18 03:26:11;;;;;;;59.25;16.88;;;;;;;-5.27;100.00;99921.41;2624285;28;19921;-85
2022/12/18 03:27:28;;;;;;;56.28;16.88;;;;;;;-5.17;100.00;99918.63;2624208;28;20044;-82
2022/12/18 03:28:52;;;;;;;56.53;18.70;;;;;;;-5.17;100.00;99921.19;2623816;28;20044;-82
2022/12/18 03:30:11;;;;;;;61.08;19.25;;;;;;;-5.06;100.00;99924.34;2624171;28;20084;-84
2022/12/18 03:31:31;;;;;;;68.65;21.20;;;;;;;-5.21;100.00;99928.56;2622108;28;20049;-82
2022/12/18 03:32:58;;;;;;;63.15;20.13;;;;;;;-5.49;100.00;99937.13;2622877;28;20102;-82
2022/12/18 03:34:21;;;;;;;57.58;19.77;;;;;;;-5.45;100.00;99932.31;2623770;28;20048;-84
2022/12/18 03:35:41;;;;;;;63.22;21.63;;;;;;;-5.36;100.00;99937.06;2625599;28;20044;-84
2022/12/18 03:36:57;;;;;;;65.13;21.80;;;;;;;-5.29;100.00;99933.22;2622846;28;20044;-82
2022/12/18 03:38:13;;;;;;;59.38;19.80;;;;;;;-5.45;100.00;99934.84;2621324;28;20052;-83
2022/12/18 03:39:28;;;;;;;71.05;24.05;;;;;;;-5.24;100.00;99939.47;2624534;28;20040;-82
2022/12/18 03:41:23;;;;;;;62.20;22.25;;;;;;;-5.32;100.00;99938.16;2621759;28;20068;-83
2022/12/18 03:42:55;;;;;;;60.55;21.10;;;;;;;-5.22;100.00;99939.56;2622151;28;20193;-82
2022/12/18 03:44:10;;;;;;;53.58;19.20;;;;;;;-5.26;100.00;99928.28;2623592;28;20097;-82
2022/12/18 03:45:34;;;;;;;62.30;22.10;;;;;;;-5.27;100.00;99936.75;2623406;28;20048;-82
2022/12/18 03:47:01;;;;;;;60.72;19.55;;;;;;;-5.31;100.00;99938.25;2624267;28;20574;-83
2022/12/18 03:48:35;;;;;;;55.53;20.75;;;;;;;-5.34;100.00;99929.53;2621798;28;20516;-83
2022/12/18 03:50:10;;;;;;;58.25;19.00;;;;;;;-5.32;100.00;99933.91;2621804;28;20106;-83
2022/12/18 03:51:48;;;;;;;51.83;18.23;;;;;;;-5.25;100.00;99938.59;2623397;28;20044;-82
2022/12/18 03:53:33;;;;;;;67.13;18.35;;;;;;;-5.29;100.00;99934.13;2623430;28;20105;-83
2022/12/18 03:54:50;;;;;;;62.60;19.20;;;;;;;-5.37;100.00;99931.91;2620863;28;20098;-82
2022/12/18 03:56:08;;;;;;;58.22;20.15;;;;;;;-5.23;100.00;99933.59;2620086;28;20449;-86
2022/12/18 03:57:28;;;;;;;59.58;19.67;;;;;;;-5.35;100.00;99930.31;2620149;28;20051;-84
2022/12/18 03:58:46;;;;;;;66.78;21.77;;;;;;;-5.27;100.00;99936.75;2620592;28;20188;-84
2022/12/18 04:00:12;;;;;;;62.78;22.38;;;;;;;-5.38;100.00;99936.09;2622040;28;20469;-83
2022/12/18 04:01:43;;;;;;;62.67;20.73;;;;;;;-5.47;100.00;99941.53;2620503;28;20047;-82
2022/12/18 04:03:01;;;;;;;60.92;19.90;;;;;;;-5.32;100.00;99950.91;2621390;28;20052;-83
2022/12/18 04:04:19;;;;;;;63.95;21.50;;;;;;;-5.25;100.00;99942.81;2621460;28;20140;-82
2022/12/18 04:05:36;;;;;;;53.08;20.60;;;;;;;-5.25;100.00;99942.81;2623248;28;20098;-83
2022/12/18 04:06:53;;;;;;;63.25;21.67;;;;;;;-5.19;100.00;99945.75;2621343;28;20131;-84
2022/12/18 04:08:09;;;;;;;62.45;23.10;;;;;;;-5.39;100.00;99949.66;2621709;28;20410;-82
2022/12/18 04:09:25;;;;;;;55.92;21.98;;;;;;;-5.28;100.00;99943.53;2621316;28;20056;-82
2022/12/18 04:10:41;;;;;;;79.40;24.60;;;;;;;-5.29;100.00;99946.88;2621188;28;20055;-82
2022/12/18 04:11:57;;;;;;;67.18;23.20;;;;;;;-5.29;100.00;99948.53;2621671;28;20052;-82
2022/12/18 04:13:12;;;;;;;61.72;23.30;;;;;;;-5.29;100.00;99952.00;2620347;28;20498;-86
2022/12/18 04:14:28;;;;;;;63.60;23.00;;;;;;;-5.22;100.00;99955.78;2620781;28;20402;-83
2022/12/18 04:15:43;;;;;;;69.75;23.80;;;;;;;-5.28;100.00;99951.19;2620950;28;20215;-83
2022/12/18 04:16:59;;;;;;;60.58;22.48;;;;;;;-5.53;100.00;99947.16;2620229;28;20498;-82
2022/12/18 04:18:15;;;;;;;64.13;22.23;;;;;;;-5.38;100.00;99953.97;2621085;28;20091;-83
2022/12/18 04:19:30;;;;;;;65.25;22.38;;;;;;;-5.28;100.00;99952.84;2623350;28;20060;-82
2022/12/18 04:20:46;;;;;;;63.15;21.63;;;;;;;-5.26;100.00;99954.72;2621421;28;20537;-83
2022/12/18 04:22:01;;;;;;;58.25;21.13;;;;;;;-5.28;100.00;99950.28;2621835;28;20189;-82
2022/12/18 04:23:17;;;;;;;57.53;20.67;;;;;;;-5.20;100.00;99955.84;2620462;28;20142;-82
2022/12/18 04:24:33;;;;;;;65.13;21.80;;;;;;;-5.21;100.00;99959.19;2620669;28;20217;-87
2022/12/18 04:25:48;;;;;;;57.95;20.38;;;;;;;-5.16;100.00;99952.72;2619987;28;20059;-83
2022/12/18 04:27:04;;;;;;;56.85;20.75;;;;;;;-5.32;100.00;99961.13;2622222;28;20071;-84
2022/12/18 04:28:20;;;;;;;64.15;22.20;;;;;;;-5.23;100.00;99954.03;2621422;28;20055;-84
2022/12/18 04:29:36;;;;;;;56.38;21.30;;;;;;;-5.25;100.00;99953.91;2620712;28;20072;-82
2022/12/18 04:30:52;;;;;;;59.78;21.42;;;;;;;-5.26;100.00;99958.94;2621076;28;20434;-82
2022/12/18 04:32:08;;;;;;;59.70;21.17;;;;;;;-5.35;100.00;99956.69;2620898;28;20050;-83
2022/12/18 04:33:24;;;;;;;53.78;20.55;;;;;;;-5.29;100.00;99968.97;2621807;28;20076;-83
2022/12/18 04:34:39;;;;;;;58.17;20.75;;;;;;;-5.42;100.00;99960.56;2621854;28;20053;-89
2022/12/18 04:35:55;;;;;;;64.70;21.60;;;;;;;-5.29;100.00;99961.31;2622178;28;20044;-86
2022/12/18 04:37:11;;;;;;;56.78;19.35;;;;;;;-5.53;100.00;99967.56;2620489;28;20132;-83
2022/12/18 04:38:26;;;;;;;59.60;21.00;;;;;;;-5.39;100.00;99970.09;2621182;28;20133;-83
2022/12/18 04:39:42;;;;;;;59.05;20.02;;;;;;;-5.33;100.00;99970.44;2620288;28;20055;-83
2022/12/18 04:40:57;;;;;;;58.85;21.38;;;;;;;-5.29;100.00;99974.97;2621038;28;20097;-83
2022/12/18 04:42:13;;;;;;;61.92;20.98;;;;;;;-5.28;100.00;99973.28;2620167;28;20123;-82
2022/12/18 04:43:28;;;;;;;58.17;20.05;;;;;;;-5.40;100.00;99976.84;2622197;28;20448;-83
2022/12/18 04:44:44;;;;;;;60.45;20.23;;;;;;;-5.38;100.00;99971.84;2622810;28;20056;-85
2022/12/18 04:46:04;;;;;;;60.95;19.88;;;;;;;-5.19;100.00;99978.03;2622757;28;20059;-84
2022/12/18 04:47:20;;;;;;;58.00;20.52;;;;;;;-5.29;100.00;99981.72;2621497;28;20109;-83
2022/12/18 04:48:36;;;;;;;72.88;23.30;;;;;;;-5.26;100.00;99976.78;2621785;28;20093;-83
2022/12/18 04:49:52;;;;;;;55.03;19.50;;;;;;;-5.76;100.00;99975.47;2619776;28;20131;-83
2022/12/18 04:51:07;;;;;;;60.60;19.33;;;;;;;-5.69;100.00;99977.63;2621456;28;20052;-83
2022/12/18 04:52:23;;;;;;;54.67;18.60;;;;;;;-5.58;100.00;99978.28;2622404;28;20564;-83
2022/12/18 04:53:38;;;;;;;67.55;21.23;;;;;;;-5.33;100.00;99982.34;2620008;28;20048;-89
2022/12/18 04:54:54;;;;;;;66.28;21.55;;;;;;;-5.20;100.00;99976.28;2622273;28;20045;-85
2022/12/18 04:56:12;;;;;;;66.88;22.38;;;;;;;-5.13;100.00;99974.19;2621659;28;20048;-81
2022/12/18 04:57:28;;;;;;;64.00;20.98;;;;;;;-5.17;100.00;99972.25;2619815;28;20093;-83
2022/12/18 04:58:44;;;;;;;68.82;21.88;;;;;;;-5.08;100.00;99974.47;2619749;28;20515;-84
2022/12/18 05:00:00;;;;;;;65.00;22.02;;;;;;;-5.18;100.00;99974.69;2623308;28;20098;-83
2022/12/18 05:01:17;;;;;;;67.30;20.98;;;;;;;-5.27;100.00;99975.03;2620477;28;20052;-89
2022/12/18 05:02:32;;;;;;;62.58;21.95;;;;;;;-5.27;100.00;99978.50;2620099;28;20056;-83
2022/12/18 05:03:48;;;;;;;70.78;23.58;;;;;;;-5.39;100.00;99973.50;2622775;28;20052;-83
2022/12/18 05:05:05;;;;;;;68.93;23.10;;;;;;;-5.53;100.00;99977.78;2621891;28;20048;-82
2022/12/18 05:06:20;;;;;;;69.28;21.55;;;;;;;-5.45;100.00;99973.13;2621725;28;20040;-83
2022/12/18 05:07:35;;;;;;;66.57;21.45;;;;;;;-5.47;100.00;99977.28;2619450;28;20048;-88
2022/12/18 05:08:51;;;;;;;76.07;25.08;;;;;;;-5.36;100.00;99980.47;2621853;28;20476;-85
2022/12/18 05:10:07;;;;;;;69.90;21.77;;;;;;;-5.61;100.00;99978.09;2620775;28;20049;-83
2022/12/18 05:11:23;;;;;;;66.90;23.27;;;;;;;-5.48;100.00;99980.63;2620245;28;20048;-82
2022/12/18 05:12:57;;;;;;;69.15;22.83;;;;;;;-5.32;100.00;99984.97;2622156;28;20497;-82
2022/12/18 05:14:13;;;;;;;60.05;21.23;;;;;;;-5.21;100.00;99989.84;2620474;28;20352;-82
2022/12/18 05:15:30;;;;;;;78.22;22.45;;;;;;;-5.13;100.00;99994.63;2622776;28;20052;-82
2022/12/18 05:16:46;;;;;;;71.80;21.92;;;;;;;-5.55;100.00;99998.88;2619479;28;20625;-82
2022/12/18 05:18:04;;;;;;;66.35;20.63;;;;;;;-5.48;100.00;99995.94;2620041;28;20048;-82
2022/12/18 05:19:19;;;;;;;71.82;21.65;;;;;;;-5.47;100.00;99997.69;2620978;28;20048;-85
2022/12/18 05:20:35;;;;;;;76.18;24.58;;;;;;;-5.33;100.00;99993.41;2619378;28;20063;-84
2022/12/18 05:21:50;;;;;;;67.90;23.13;;;;;;;-5.28;100.00;99996.25;2620717;28;20056;-84
2022/12/18 05:23:06;;;;;;;78.65;26.60;;;;;;;-5.22;100.00;100003.41;2622598;28;20566;-88
2022/12/18 05:24:21;;;;;;;95.25;35.65;;;;;;;-5.26;100.00;99998.13;2624061;28;20047;-83
2022/12/18 05:25:37;;;;;;;95.13;39.67;;;;;;;-5.40;100.00;100004.06;2621485;28;20143;-84
2022/12/18 05:26:53;;;;;;;70.35;27.30;;;;;;;-5.31;100.00;100012.28;2623721;28;20036;-84
2022/12/18 05:28:08;;;;;;;65.07;25.27;;;;;;;-5.31;100.00;100013.94;2622264;28;20054;-84
2022/12/18 05:29:24;;;;;;;68.78;23.75;;;;;;;-5.31;100.00;100013.94;2623544;28;20115;-82
2022/12/18 05:30:42;;;;;;;66.88;21.45;;;;;;;-5.28;100.00;100015.03;2621808;28;20057;-84
2022/12/18 05:31:57;;;;;;;69.18;22.02;;;;;;;-5.39;100.00;100008.38;2623700;28;20074;-82
2022/12/18 05:33:13;;;;;;;68.85;20.42;;;;;;;-5.35;100.00;99999.25;2621939;28;20046;-82
2022/12/18 05:34:29;;;;;;;75.47;27.85;;;;;;;-5.38;100.00;99997.38;2622192;28;20048;-82
2022/12/18 05:35:50;;;;;;;68.63;24.75;;;;;;;-5.23;100.00;100002.53;2622030;28;20155;-82
2022/12/18 05:37:05;;;;;;;74.57;28.15;;;;;;;-5.59;100.00;100002.03;2622688;28;20048;-82
2022/12/18 05:38:22;;;;;;;72.43;24.90;;;;;;;-5.47;100.00;100001.91;2623033;28;20387;-82
2022/12/18 05:39:37;;;;;;;79.03;28.08;;;;;;;-5.46;100.00;100004.56;2623569;28;20071;-82
2022/12/18 05:40:53;;;;;;;82.25;25.73;;;;;;;-5.61;100.00;100006.16;2620889;28;20118;-83
2022/12/18 05:42:09;;;;;;;71.20;23.00;;;;;;;-5.64;100.00;100003.44;2621988;28;20049;-83
2022/12/18 05:43:25;;;;;;;76.90;23.25;;;;;;;-5.58;100.00;100006.34;2621476;28;20052;-83
2022/12/18 05:44:41;;;;;;;61.95;21.95;;;;;;;-5.64;100.00;100003.44;2622293;28;20052;-83
2022/12/18 05:45:57;;;;;;;69.82;20.40;;;;;;;-5.85;100.00;99999.63;2621975;28;20510;-82
2022/12/18 05:47:12;;;;;;;78.72;21.65;;;;;;;-5.67;100.00;100004.13;2622547;28;20093;-84
2022/12/18 05:48:28;;;;;;;75.00;21.90;;;;;;;-5.67;100.00;99999.88;2622709;28;20597;-84
2022/12/18 05:49:43;;;;;;;68.70;20.63;;;;;;;-5.72;100.00;100005.50;2621388;28;20044;-89
2022/12/18 05:51:07;;;;;;;68.45;21.83;;;;;;;-5.72;100.00;100005.50;2622087;28;20058;-84
2022/12/18 05:52:23;;;;;;;61.97;19.67;;;;;;;-5.88;100.00;100007.06;2622552;28;20056;-84
2022/12/18 05:53:39;;;;;;;66.00;20.85;;;;;;;-6.01;100.00;100010.53;2621650;28;20601;-82
2022/12/18 05:54:54;;;;;;;75.45;23.30;;;;;;;-5.71;100.00;100013.25;2621824;28;20436;-88
2022/12/18 05:56:14;;;;;;;71.63;21.48;;;;;;;-6.02;100.00;100020.66;2622090;28;20046;-81
2022/12/18 05:57:30;;;;;;;71.07;21.50;;;;;;;-6.14;100.00;100020.75;2622465;28;20048;-81
2022/12/18 05:58:46;;;;;;;72.07;21.60;;;;;;;-6.20;100.00;100023.78;2621287;28;20049;-81
2022/12/18 06:00:02;;;;;;;70.10;22.25;;;;;;;-6.12;100.00;100025.19;2622412;28;20518;-83
2022/12/18 06:01:21;;;;;;;87.43;24.77;;;;;;;-6.02;100.00;100025.75;2621168;28;20083;-84